Time;durP1;ratioP1;P1;durP2;ratioP2;P2;SDS_P1;SDS_P2;PMS_P1;PMS_P2;Temp;Humidity;BMP_temperature;BMP_pressure;BME280_temperature;BME280_humidity;BME280_pressure;Samples;Min_cycle;Max_cycle;Signal;HPM_P1;HPM_P2
2023/09/17 00:01:39;;;;;;;19.50;17.40;;;;;;;15.31;95.53;100828.21;109193;1251;71408;-82
2023/09/17 00:04:06;;;;;;;18.80;16.90;;;;;;;15.39;95.21;100826.67;107843;1253;60622;-81
2023/09/17 00:06:34;;;;;;;20.80;17.90;;;;;;;15.45;94.89;100826.70;107850;1254;59599;-80
2023/09/17 00:09:03;;;;;;;19.80;17.50;;;;;;;15.43;94.94;100824.22;106464;1254;71961;-80
2023/09/17 00:11:31;;;;;;;22.30;20.20;;;;;;;15.39;94.88;100821.09;106015;1254;68953;-80
2023/09/17 00:13:58;;;;;;;19.20;17.30;;;;;;;15.36;94.53;100821.07;106169;1258;71720;-78
2023/09/17 00:16:31;;;;;;;19.10;17.30;;;;;;;15.41;94.10;100820.21;108260;1258;60559;-78
2023/09/17 00:18:59;;;;;;;20.20;18.20;;;;;;;15.45;93.56;100822.41;106276;1254;59640;-79
2023/09/17 00:21:27;;;;;;;21.70;19.40;;;;;;;15.41;93.10;100825.83;106060;1267;73018;-79
2023/09/17 00:23:54;;;;;;;21.50;19.30;;;;;;;15.36;93.15;100823.61;105774;1255;70306;-78
2023/09/17 00:26:22;;;;;;;20.30;18.10;;;;;;;15.31;92.89;100826.47;105793;1254;72468;-79
2023/09/17 00:28:50;;;;;;;18.60;16.70;;;;;;;15.31;92.36;100823.42;105716;1254;61699;-79
2023/09/17 00:31:17;;;;;;;21.10;19.00;;;;;;;15.31;92.49;100825.20;105783;1254;60486;-79
2023/09/17 00:33:45;;;;;;;21.60;19.30;;;;;;;15.26;92.64;100826.12;105967;1251;72634;-80
2023/09/17 00:36:13;;;;;;;22.30;20.00;;;;;;;15.19;92.82;100822.60;105917;1257;68835;-79
2023/09/17 00:38:40;;;;;;;18.80;17.00;;;;;;;15.13;93.18;100822.96;105565;1253;71064;-77
2023/09/17 00:41:07;;;;;;;22.80;17.10;;;;;;;15.15;93.31;100825.40;105746;1254;61733;-78
2023/09/17 00:43:35;;;;;;;20.10;18.00;;;;;;;15.19;93.25;100824.30;105823;1255;60633;-79
2023/09/17 00:46:04;;;;;;;20.40;18.30;;;;;;;15.14;93.37;100824.42;106269;1254;73733;-79
2023/09/17 00:48:31;;;;;;;19.60;17.60;;;;;;;15.09;93.66;100825.88;105793;1254;68739;-80
2023/09/17 00:50:59;;;;;;;20.10;17.90;;;;;;;15.12;93.59;100824.30;106130;1254;71432;-79
2023/09/17 00:53:26;;;;;;;20.20;18.10;;;;;;;15.16;93.35;100823.30;107064;1254;60441;-80
2023/09/17 00:55:54;;;;;;;20.00;17.90;;;;;;;15.15;93.32;100820.96;107550;1254;60543;-80
2023/09/17 00:58:22;;;;;;;21.40;18.70;;;;;;;15.11;93.28;100820.31;106621;1257;73790;-79
2023/09/17 01:00:50;;;;;;;21.50;17.90;;;;;;;15.07;93.06;100826.44;106814;1254;70338;-81
2023/09/17 01:03:18;;;;;;;20.70;17.60;;;;;;;15.11;92.60;100823.73;106282;1261;71434;-79
2023/09/17 01:05:45;;;;;;;20.00;17.60;;;;;;;15.12;92.08;100823.52;108587;1254;59161;-80
2023/09/17 01:08:13;;;;;;;20.10;18.10;;;;;;;15.08;91.89;100818.69;108621;1252;60909;-81
2023/09/17 01:10:40;;;;;;;21.00;18.50;;;;;;;15.01;92.21;100821.40;107343;1254;72582;-81
2023/09/17 01:13:09;;;;;;;18.90;17.00;;;;;;;14.96;92.22;100818.38;106060;1254;70468;-81
2023/09/17 01:15:37;;;;;;;18.70;17.00;;;;;;;15.00;92.00;100820.80;106339;1254;71087;-80
2023/09/17 01:18:05;;;;;;;18.10;16.10;;;;;;;15.02;91.73;100824.17;106151;1252;60471;-80
2023/09/17 01:20:38;;;;;;;20.50;18.10;;;;;;;14.96;91.84;100820.34;106825;1254;60638;-80
2023/09/17 01:23:10;;;;;;;20.50;18.40;;;;;;;14.88;92.21;100822.10;106608;1253;72590;-80
2023/09/17 01:25:48;;;;;;;19.30;17.30;;;;;;;14.85;92.33;100820.33;106221;1254;69168;-78
2023/09/17 01:28:16;;;;;;;18.80;16.70;;;;;;;14.89;92.08;100814.17;106176;1254;72374;-79
2023/09/17 01:30:45;;;;;;;19.20;17.20;;;;;;;14.88;91.99;100815.02;107052;1253;60390;-78
2023/09/17 01:33:13;;;;;;;20.10;18.10;;;;;;;14.80;92.32;100811.95;108229;1254;60290;-79
2023/09/17 01:35:47;;;;;;;19.90;17.80;;;;;;;14.74;92.76;100807.80;108520;1254;73898;-80
2023/09/17 01:38:15;;;;;;;20.90;17.30;;;;;;;14.80;92.77;100808.80;107306;1253;68737;-81
2023/09/17 01:40:42;;;;;;;18.30;16.50;;;;;;;14.84;92.57;100807.91;105994;1254;71391;-80
2023/09/17 01:43:10;;;;;;;20.30;18.10;;;;;;;14.80;92.69;100806.63;105709;1260;60477;-80
2023/09/17 01:45:37;;;;;;;20.70;18.50;;;;;;;14.73;92.76;100807.94;105830;1257;60448;-79
2023/09/17 01:48:05;;;;;;;19.70;17.50;;;;;;;14.68;93.24;100808.14;106060;1254;71666;-78
2023/09/17 01:50:33;;;;;;;18.70;16.80;;;;;;;14.71;93.47;100805.40;106251;1254;68706;-79
2023/09/17 01:53:01;;;;;;;21.30;18.30;;;;;;;14.74;93.20;100805.30;106051;1260;71505;-79
2023/09/17 01:55:29;;;;;;;19.70;17.70;;;;;;;14.71;92.94;100806.71;105777;1260;60419;-79
2023/09/17 01:57:57;;;;;;;20.30;18.20;;;;;;;14.65;92.86;100807.69;105593;1254;61210;-79
2023/09/17 02:00:24;;;;;;;19.00;17.20;;;;;;;14.62;92.83;100807.15;106040;1258;74766;-80
2023/09/17 02:02:52;;;;;;;18.40;16.40;;;;;;;14.63;92.59;100803.80;107542;1254;70110;-78
2023/09/17 02:05:25;;;;;;;19.50;17.40;;;;;;;14.67;92.46;100802.90;106675;1251;71461;-80
2023/09/17 02:07:52;;;;;;;20.60;18.10;;;;;;;14.66;93.00;100800.66;106176;1256;60796;-80
2023/09/17 02:10:20;;;;;;;19.30;17.30;;;;;;;14.63;93.08;100801.40;107986;1253;60362;-79
2023/09/17 02:12:48;;;;;;;18.30;16.60;;;;;;;14.62;93.28;100799.91;107894;1253;72706;-79
2023/09/17 02:15:15;;;;;;;16.90;15.30;;;;;;;14.69;92.83;100794.84;108286;1256;69042;-79
2023/09/17 02:17:43;;;;;;;18.40;16.50;;;;;;;14.77;92.53;100795.23;106294;1257;71087;-79
2023/09/17 02:20:11;;;;;;;19.20;17.20;;;;;;;14.75;92.15;100793.40;106570;1255;60437;-76
2023/09/17 02:22:39;;;;;;;19.20;17.30;;;;;;;14.72;92.13;100792.53;108397;1254;60423;-77
2023/09/17 02:25:08;;;;;;;18.60;16.60;;;;;;;14.69;91.91;100791.20;107751;1254;72731;-79
2023/09/17 02:27:36;;;;;;;17.80;15.90;;;;;;;14.72;91.40;100789.15;105797;1253;70070;-77
2023/09/17 02:30:04;;;;;;;19.60;17.50;;;;;;;14.73;91.15;100789.23;105781;1259;72655;-80
2023/09/17 02:32:32;;;;;;;19.30;17.30;;;;;;;14.64;91.04;100790.04;105784;1255;61062;-79
2023/09/17 02:35:00;;;;;;;19.20;17.30;;;;;;;14.52;91.26;100784.83;105887;1259;60510;-78
2023/09/17 02:37:27;;;;;;;17.90;16.10;;;;;;;14.43;91.53;100786.05;105795;1259;73737;-78
2023/09/17 02:39:55;;;;;;;17.70;15.80;;;;;;;14.41;91.41;100785.54;105767;1254;70167;-79
2023/09/17 02:42:23;;;;;;;18.10;16.20;;;;;;;14.38;91.34;100785.52;105840;1255;72397;-80
2023/09/17 02:44:50;;;;;;;22.70;17.30;;;;;;;14.32;91.79;100786.11;107070;1254;60502;-79
2023/09/17 02:47:17;;;;;;;18.90;17.00;;;;;;;14.26;91.98;100787.17;106498;1253;60416;-79
2023/09/17 02:49:45;;;;;;;19.30;17.20;;;;;;;14.20;92.24;100791.19;107827;1253;72777;-79
2023/09/17 02:52:13;;;;;;;17.70;15.90;;;;;;;14.25;92.19;100787.52;107472;1253;68766;-78
2023/09/17 02:54:40;;;;;;;18.00;16.20;;;;;;;14.30;92.14;100788.48;107376;1254;71422;-78
2023/09/17 02:57:08;;;;;;;18.60;16.70;;;;;;;14.31;92.87;100788.59;106959;1259;60382;-79
2023/09/17 02:59:35;;;;;;;19.40;17.30;;;;;;;14.29;93.64;100787.55;106666;1260;60377;-78
2023/09/17 03:02:03;;;;;;;20.20;17.40;;;;;;;14.29;93.97;100787.42;107133;1253;72694;-80
2023/09/17 03:04:33;;;;;;;19.20;15.90;;;;;;;14.38;93.98;100786.08;106612;1253;69625;-79
2023/09/17 03:07:04;;;;;;;19.20;16.50;;;;;;;14.45;93.98;100782.94;106287;1254;71104;-77
2023/09/17 03:09:31;;;;;;;18.30;16.30;;;;;;;14.45;93.96;100779.92;106332;1253;60697;-78
2023/09/17 03:11:59;;;;;;;19.90;17.90;;;;;;;14.44;94.10;100781.53;106279;1253;60488;-79
2023/09/17 03:14:26;;;;;;;18.20;16.40;;;;;;;14.42;94.27;100781.50;108427;1253;72831;-77
2023/09/17 03:16:55;;;;;;;18.70;15.50;;;;;;;14.50;93.87;100780.49;108828;1253;68704;-77
2023/09/17 03:19:23;;;;;;;18.60;16.70;;;;;;;14.56;93.58;100781.11;108155;1254;71200;-76
2023/09/17 03:21:50;;;;;;;19.70;17.60;;;;;;;14.55;93.73;100778.16;108107;1258;60544;-77
2023/09/17 03:24:18;;;;;;;19.80;17.80;;;;;;;14.51;93.55;100780.89;106584;1253;60599;-77
2023/09/17 03:26:45;;;;;;;19.70;16.90;;;;;;;14.48;93.81;100780.66;107555;1255;73853;-77
2023/09/17 03:29:13;;;;;;;19.70;16.60;;;;;;;14.53;93.80;100782.59;108188;1254;69079;-80
2023/09/17 03:31:41;;;;;;;20.20;16.50;;;;;;;14.59;93.84;100780.45;106142;1256;72765;-78
2023/09/17 03:34:10;;;;;;;23.90;17.10;;;;;;;14.57;94.14;100781.34;106086;1257;60454;-79
2023/09/17 03:36:38;;;;;;;22.90;18.40;;;;;;;14.53;94.36;100783.16;106132;1255;60533;-80
2023/09/17 03:39:05;;;;;;;19.80;17.70;;;;;;;14.50;94.53;100785.60;105944;1253;74133;-79
2023/09/17 03:41:33;;;;;;;17.80;15.80;;;;;;;14.57;94.19;100787.58;106415;1254;68740;-80
2023/09/17 03:44:01;;;;;;;19.00;17.10;;;;;;;14.63;93.86;100787.83;105857;1253;72970;-79
2023/09/17 03:46:32;;;;;;;20.60;18.30;;;;;;;14.63;93.98;100790.48;106120;1259;60479;-78
2023/09/17 03:49:00;;;;;;;21.70;19.60;;;;;;;14.58;93.90;100791.04;106154;1253;60767;-79
2023/09/17 03:51:28;;;;;;;20.60;17.20;;;;;;;14.54;94.08;100788.52;105989;1254;73499;-82
2023/09/17 03:53:56;;;;;;;19.90;17.40;;;;;;;14.60;93.78;100788.52;106675;1254;68949;-79
2023/09/17 03:56:24;;;;;;;19.40;17.40;;;;;;;14.66;93.49;100788.60;106817;1253;71461;-77
2023/09/17 03:58:53;;;;;;;21.90;19.60;;;;;;;14.64;93.42;100787.70;107653;1253;61255;-76
2023/09/17 04:01:24;;;;;;;24.30;20.70;;;;;;;14.61;93.81;100784.83;109084;1253;58864;-77
2023/09/17 04:03:52;;;;;;;25.20;19.90;;;;;;;14.62;94.16;100785.73;108448;1253;72581;-78
2023/09/17 04:06:20;;;;;;;25.30;19.10;;;;;;;14.73;94.01;100782.80;108537;1253;69390;-78
2023/09/17 04:08:48;;;;;;;21.20;18.80;;;;;;;14.81;94.02;100783.89;108859;1253;71395;-77
2023/09/17 04:11:17;;;;;;;21.80;19.50;;;;;;;14.82;94.16;100785.54;107317;1256;60424;-77
2023/09/17 04:13:44;;;;;;;21.50;19.40;;;;;;;14.83;93.99;100783.95;107003;1255;60348;-78
2023/09/17 04:16:12;;;;;;;20.40;17.40;;;;;;;14.91;93.59;100785.08;107567;1253;72299;-79
2023/09/17 04:18:40;;;;;;;20.50;18.40;;;;;;;14.98;93.47;100788.36;106749;1253;70221;-80
2023/09/17 04:21:07;;;;;;;20.80;18.70;;;;;;;14.99;93.56;100787.80;106830;1254;72685;-78
2023/09/17 04:23:35;;;;;;;21.50;16.70;;;;;;;14.98;93.43;100792.52;108430;1257;60604;-78
2023/09/17 04:26:02;;;;;;;19.60;17.30;;;;;;;15.01;93.15;100797.33;108847;1253;58743;-78
2023/09/17 04:28:30;;;;;;;20.90;18.70;;;;;;;15.07;93.11;100794.13;107387;1254;72274;-80
2023/09/17 04:30:58;;;;;;;22.50;20.30;;;;;;;15.08;93.09;100797.60;106000;1259;68964;-79
2023/09/17 04:33:26;;;;;;;24.80;19.80;;;;;;;15.07;93.27;100796.84;106129;1254;72713;-80
2023/09/17 04:35:57;;;;;;;19.30;17.30;;;;;;;15.09;93.05;100796.02;106101;1256;61631;-78
2023/09/17 04:38:24;;;;;;;20.40;18.40;;;;;;;15.19;92.92;100794.83;105652;1256;60407;-80
2023/09/17 04:40:52;;;;;;;19.80;17.60;;;;;;;15.25;92.75;100798.46;105969;1255;73794;-78
2023/09/17 04:43:21;;;;;;;21.30;19.20;;;;;;;15.28;93.00;100794.46;106854;1253;68989;-79
2023/09/17 04:45:49;;;;;;;21.80;18.50;;;;;;;15.34;92.93;100793.77;107071;1254;71381;-79
2023/09/17 04:48:22;;;;;;;;;;;;;;;15.46;92.48;100793.71;105839;1257;60416;-80
2023/09/17 04:50:49;;;;;;;23.10;18.10;;;;;;;15.56;92.00;100796.32;105884;1259;60080;-77
2023/09/17 04:53:17;;;;;;;21.00;18.50;;;;;;;15.59;91.82;100792.11;106017;1253;72703;-77
2023/09/17 04:55:46;;;;;;;21.80;19.50;;;;;;;15.60;91.91;100790.58;107703;1253;68504;-81
2023/09/17 04:58:14;;;;;;;19.10;17.10;;;;;;;15.63;91.79;100793.70;106076;1252;72502;-79
2023/09/17 05:00:44;;;;;;;20.30;18.20;;;;;;;15.73;91.17;100797.82;105968;1254;61759;-78
2023/09/17 05:03:12;;;;;;;21.30;17.60;;;;;;;15.81;90.82;100795.34;105933;1253;60405;-79
2023/09/17 05:05:40;;;;;;;20.00;18.00;;;;;;;15.81;90.45;100796.59;105814;1254;72383;-80
2023/09/17 05:08:08;;;;;;;22.10;19.90;;;;;;;15.77;90.75;100796.80;105808;1254;70158;-81
2023/09/17 05:10:35;;;;;;;19.90;17.50;;;;;;;15.80;91.03;100798.86;105989;1254;72722;-80
2023/09/17 05:13:03;;;;;;;18.40;16.50;;;;;;;15.93;90.88;100797.14;105756;1253;60876;-79
2023/09/17 05:15:32;;;;;;;19.60;17.60;;;;;;;16.06;90.32;100799.03;107352;1253;60348;-80
2023/09/17 05:18:05;;;;;;;19.00;17.00;;;;;;;16.10;90.09;100798.53;106886;1253;72424;-80
2023/09/17 05:20:33;;;;;;;;;;;;;;;16.13;89.80;100800.48;106281;1258;69144;-77
2023/09/17 05:23:01;;;;;;;19.80;17.80;;;;;;;16.15;89.41;100805.52;106081;1254;72546;-77
2023/09/17 05:25:28;;;;;;;17.60;15.80;;;;;;;16.21;89.34;100806.27;106135;1254;60638;-75
2023/09/17 05:27:56;;;;;;;18.20;16.40;;;;;;;16.34;88.52;100805.60;106981;1253;59703;-75
2023/09/17 05:30:25;;;;;;;17.70;15.90;;;;;;;16.43;87.93;100798.65;107452;1258;72581;-77
2023/09/17 05:32:53;;;;;;;17.40;15.60;;;;;;;16.46;87.69;100796.48;107483;1258;68908;-77
2023/09/17 05:35:20;;;;;;;19.80;17.80;;;;;;;16.49;87.23;100799.16;106551;1254;72676;-77
2023/09/17 05:37:48;;;;;;;18.30;16.30;;;;;;;16.53;87.02;100801.64;108088;1258;60361;-76
2023/09/17 05:40:16;;;;;;;17.70;16.00;;;;;;;16.63;86.61;100803.30;105581;1254;60588;-77
2023/09/17 05:42:43;;;;;;;16.50;14.80;;;;;;;16.73;85.92;100801.94;105420;1253;74014;-76
2023/09/17 05:45:11;;;;;;;17.70;15.80;;;;;;;16.77;85.43;100796.63;105492;1257;70759;-76
2023/09/17 05:47:41;;;;;;;17.70;16.10;;;;;;;16.80;85.11;100797.02;105684;1260;72696;-76
2023/09/17 05:50:09;;;;;;;18.60;16.80;;;;;;;16.83;84.47;100798.75;105739;1253;60430;-78
2023/09/17 05:52:37;;;;;;;17.20;15.50;;;;;;;16.87;83.88;100795.74;105981;1258;60452;-75
2023/09/17 05:55:07;;;;;;;17.20;15.60;;;;;;;17.00;83.49;100788.20;105373;1253;75774;-77
2023/09/17 05:57:34;;;;;;;18.50;16.60;;;;;;;17.12;83.02;100787.26;105536;1253;69913;-76
2023/09/17 06:00:04;;;;;;;16.40;14.80;;;;;;;17.19;82.52;100782.85;105809;1254;72779;-74
2023/09/17 06:02:40;;;;;;;18.30;16.30;;;;;;;17.24;81.51;100789.61;105585;1258;60550;-74
2023/09/17 06:05:10;;;;;;;17.00;15.30;;;;;;;17.24;80.95;100794.33;105606;1253;60566;-77
2023/09/17 06:07:37;;;;;;;18.70;15.50;;;;;;;17.27;80.51;100791.30;105329;1253;73017;-76
2023/09/17 06:10:05;;;;;;;16.20;14.70;;;;;;;17.39;79.98;100796.73;105740;1256;67718;-76
2023/09/17 06:12:33;;;;;;;17.00;14.30;;;;;;;17.50;79.54;100797.71;105807;1252;72788;-77
2023/09/17 06:15:02;;;;;;;17.40;15.70;;;;;;;17.54;79.03;100797.73;105672;1257;60666;-77
2023/09/17 06:17:29;;;;;;;16.70;15.00;;;;;;;17.54;78.08;100802.26;105444;1258;60327;-76
2023/09/17 06:19:57;;;;;;;16.80;15.10;;;;;;;17.48;77.16;100801.86;105557;1254;73378;-77
2023/09/17 06:22:25;;;;;;;16.80;15.20;;;;;;;17.38;77.13;100801.94;105561;1258;69249;-76
2023/09/17 06:24:52;;;;;;;14.50;13.10;;;;;;;17.37;77.38;100800.39;105630;1259;72185;-76
2023/09/17 06:27:21;;;;;;;16.00;14.40;;;;;;;17.43;77.38;100801.39;105659;1253;60530;-76
2023/09/17 06:29:48;;;;;;;17.30;15.60;;;;;;;17.46;77.29;100802.42;106004;1252;61143;-76
2023/09/17 06:32:16;;;;;;;17.60;15.80;;;;;;;17.52;77.26;100805.50;107594;1253;73883;-77
2023/09/17 06:34:44;;;;;;;20.20;16.40;;;;;;;17.61;77.11;100808.39;107580;1253;68771;-76
2023/09/17 06:37:12;;;;;;;18.20;16.20;;;;;;;17.70;77.00;100808.08;106782;1256;72685;-77
2023/09/17 06:39:40;;;;;;;19.50;17.40;;;;;;;17.82;76.68;100811.00;105790;1258;60554;-77
2023/09/17 06:42:07;;;;;;;19.90;17.80;;;;;;;17.89;75.90;100808.15;105909;1256;60441;-77
2023/09/17 06:44:35;;;;;;;19.50;17.10;;;;;;;17.98;75.56;100807.97;105847;1258;72996;-78
2023/09/17 06:47:03;;;;;;;20.60;18.60;;;;;;;18.13;74.99;100811.88;105977;1253;67933;-77
2023/09/17 06:49:31;;;;;;;21.20;18.60;;;;;;;18.24;74.17;100814.31;105946;1253;72712;-77
2023/09/17 06:51:58;;;;;;;20.70;18.60;;;;;;;18.27;73.30;100813.76;105940;1253;60384;-77
2023/09/17 06:54:25;;;;;;;21.80;19.50;;;;;;;18.30;73.28;100819.04;105976;1257;60508;-77
2023/09/17 06:56:53;;;;;;;21.80;19.60;;;;;;;18.36;72.74;100819.75;106090;1253;72660;-77
2023/09/17 06:59:20;;;;;;;20.40;18.60;;;;;;;18.39;72.29;100821.77;105938;1259;68681;-77
2023/09/17 07:01:48;;;;;;;21.00;18.60;;;;;;;18.43;71.97;100818.33;105775;1254;72696;-77
2023/09/17 07:04:15;;;;;;;19.80;17.90;;;;;;;18.46;71.36;100819.17;106395;1254;60391;-77
2023/09/17 07:06:43;;;;;;;19.10;16.80;;;;;;;18.46;71.36;100816.20;106628;1254;60600;-78
2023/09/17 07:09:10;;;;;;;19.30;17.40;;;;;;;18.49;71.36;100816.69;106126;1255;72573;-76
2023/09/17 07:11:38;;;;;;;18.80;16.70;;;;;;;18.52;71.63;100815.01;105393;1253;70580;-79
2023/09/17 07:14:09;;;;;;;18.80;16.80;;;;;;;18.60;71.67;100815.96;105879;1254;72686;-77
2023/09/17 07:16:39;;;;;;;18.00;16.20;;;;;;;18.77;71.24;100815.23;105905;1257;61607;-77
2023/09/17 07:19:06;;;;;;;17.80;16.00;;;;;;;18.93;71.10;100819.58;106086;1254;60562;-76
2023/09/17 07:21:34;;;;;;;17.10;15.40;;;;;;;19.03;70.90;100820.36;105540;1258;74052;-76
2023/09/17 07:24:01;;;;;;;15.70;13.90;;;;;;;19.12;69.84;100818.36;105700;1257;69027;-76
2023/09/17 07:26:29;;;;;;;14.70;13.20;;;;;;;19.18;68.47;100818.12;105812;1253;72751;-78
2023/09/17 07:28:56;;;;;;;18.70;13.90;;;;;;;19.19;67.77;100814.60;105932;1253;60467;-76
2023/09/17 07:31:24;;;;;;;15.60;14.00;;;;;;;19.19;67.94;100813.45;106173;1256;60356;-77
2023/09/17 07:33:52;;;;;;;16.60;14.90;;;;;;;19.24;68.37;100808.45;107130;1257;73666;-77
2023/09/17 07:36:20;;;;;;;14.70;13.20;;;;;;;19.32;68.34;100808.06;107333;1253;68711;-76
2023/09/17 07:38:47;;;;;;;14.50;13.10;;;;;;;19.37;67.20;100804.09;106730;1258;71080;-75
2023/09/17 07:41:15;;;;;;;16.60;13.90;;;;;;;19.41;66.34;100805.23;106030;1256;60512;-75
2023/09/17 07:43:42;;;;;;;14.60;13.20;;;;;;;19.40;65.40;100802.35;105555;1259;60890;-77
2023/09/17 07:46:13;;;;;;;14.40;12.70;;;;;;;19.35;64.93;100803.66;105785;1253;74993;-75
2023/09/17 07:48:41;;;;;;;14.60;12.70;;;;;;;19.34;65.17;100805.20;105821;1253;68832;-76
2023/09/17 07:51:08;;;;;;;14.00;12.50;;;;;;;19.36;65.00;100800.19;105565;1254;72461;-77
2023/09/17 07:53:36;;;;;;;14.40;12.80;;;;;;;19.39;64.74;100797.27;105714;1258;60598;-76
2023/09/17 07:56:03;;;;;;;13.50;11.80;;;;;;;19.42;64.42;100791.83;106170;1261;60527;-75
2023/09/17 07:58:33;;;;;;;12.80;11.60;;;;;;;19.47;64.94;100791.15;106447;1253;72552;-76
2023/09/17 08:01:01;;;;;;;13.50;12.10;;;;;;;19.57;65.05;100789.20;108400;1256;68959;-75
2023/09/17 08:03:29;;;;;;;15.20;13.40;;;;;;;19.69;64.83;100786.72;106604;1256;70389;-75
2023/09/17 08:05:57;;;;;;;13.70;11.90;;;;;;;19.81;64.60;100784.70;106261;1253;60940;-74
2023/09/17 08:08:24;;;;;;;12.70;10.50;;;;;;;19.95;63.91;100787.48;105888;1255;60486;-75
2023/09/17 08:10:52;;;;;;;13.20;9.40;;;;;;;20.08;62.92;100792.64;105763;1258;73781;-74
2023/09/17 08:13:20;;;;;;;11.80;9.50;;;;;;;20.20;61.54;100790.84;105485;1258;67856;-74
2023/09/17 08:15:50;;;;;;;10.40;9.10;;;;;;;20.31;60.93;100791.63;105875;1253;72437;-74
2023/09/17 08:18:18;;;;;;;11.30;10.10;;;;;;;20.39;59.97;100789.05;105806;1258;60607;-74
2023/09/17 08:20:45;;;;;;;10.20;9.10;;;;;;;20.48;60.10;100787.02;105810;1253;60468;-75
2023/09/17 08:23:13;;;;;;;11.60;10.50;;;;;;;20.59;60.40;100781.19;105372;1253;72566;-75
2023/09/17 08:25:40;;;;;;;11.50;10.30;;;;;;;20.71;60.21;100780.06;105441;1258;68812;-71
2023/09/17 08:28:13;;;;;;;11.50;9.90;;;;;;;20.85;59.79;100777.18;106561;1254;72950;-75
2023/09/17 08:30:41;;;;;;;10.30;8.90;;;;;;;20.93;57.94;100780.31;105933;1253;60444;-75
2023/09/17 08:33:10;;;;;;;13.50;9.50;;;;;;;20.96;57.54;100775.45;105414;1257;717010;-73
2023/09/17 08:37:42;;;;;;;9.40;8.50;;;;;;;21.17;58.24;100769.70;102794;1292;600235;-75
2023/09/17 08:40:13;;;;;;;10.00;9.00;;;;;;;21.35;57.55;100771.51;105669;1257;60062;-74
2023/09/17 08:42:41;;;;;;;10.20;9.30;;;;;;;21.56;57.06;100771.39;105801;1263;59333;-74
2023/09/17 08:45:10;;;;;;;10.10;8.40;;;;;;;21.75;56.56;100770.50;105458;1266;72252;-75
2023/09/17 08:47:38;;;;;;;10.00;9.10;;;;;;;21.94;55.06;100771.73;105638;1263;70157;-75
2023/09/17 08:50:08;;;;;;;8.20;7.50;;;;;;;22.09;53.75;100773.74;105554;1263;72906;-74
2023/09/17 08:52:47;;;;;;;8.10;7.30;;;;;;;22.19;52.96;100770.05;105342;1257;60503;-73
2023/09/17 08:55:15;;;;;;;10.10;8.60;;;;;;;22.29;53.20;100768.17;105717;1257;59282;-75
2023/09/17 08:57:42;;;;;;;8.50;7.70;;;;;;;22.44;53.29;100768.17;105709;1260;70953;-75
2023/09/17 09:00:10;;;;;;;8.30;7.40;;;;;;;22.65;53.30;100765.42;105675;1256;68736;-75
2023/09/17 09:02:47;;;;;;;9.90;7.90;;;;;;;22.97;50.82;100769.29;105889;1257;72632;-76
2023/09/17 09:05:15;;;;;;;8.30;7.60;;;;;;;23.25;50.14;100764.48;105563;1257;59730;-74
2023/09/17 09:07:44;;;;;;;9.20;8.10;;;;;;;23.63;51.05;100763.21;105480;1257;59742;-75
2023/09/17 09:10:12;;;;;;;9.70;8.70;;;;;;;24.28;50.31;100770.33;105940;1257;71248;-76
2023/09/17 09:12:42;;;;;;;9.20;8.30;;;;;;;24.97;48.38;100763.03;105654;1260;69309;-73
2023/09/17 09:15:12;;;;;;;8.90;8.00;;;;;;;25.57;47.71;100760.47;106056;1257;72454;-76
2023/09/17 09:17:39;;;;;;;9.00;8.00;;;;;;;26.23;47.12;100757.09;107528;1256;61003;-76
2023/09/17 09:20:09;;;;;;;9.10;7.50;;;;;;;26.91;44.55;100761.95;108698;1257;58762;-73
2023/09/17 09:22:37;;;;;;;8.40;7.60;;;;;;;27.26;43.34;100755.10;106929;1255;71752;-76
2023/09/17 09:25:06;;;;;;;8.90;8.10;;;;;;;27.59;43.52;100756.30;105482;1257;70314;-76
2023/09/17 09:27:33;;;;;;;7.80;7.20;;;;;;;28.13;42.87;100752.45;105745;1257;72004;-77
2023/09/17 09:30:14;;;;;;;7.40;6.70;;;;;;;28.79;42.56;100748.33;106383;1259;59688;-76
2023/09/17 09:32:42;;;;;;;8.10;7.30;;;;;;;29.57;40.79;100748.95;105988;1256;59827;-76
2023/09/17 09:35:10;;;;;;;6.40;5.80;;;;;;;30.06;39.35;100747.86;105459;1256;71728;-75
2023/09/17 09:37:38;;;;;;;7.50;6.90;;;;;;;30.15;37.77;100753.08;105827;1260;69156;-75
2023/09/17 09:40:06;;;;;;;7.50;6.90;;;;;;;30.04;38.19;100753.09;105967;1257;72791;-77
2023/09/17 09:42:34;;;;;;;7.90;7.30;;;;;;;30.19;38.30;100746.77;106672;1260;59633;-76
2023/09/17 09:45:02;;;;;;;7.20;6.60;;;;;;;30.62;38.13;100744.55;106046;1260;59980;-76
2023/09/17 09:47:30;;;;;;;8.00;6.90;;;;;;;31.27;36.59;100752.84;106066;1255;71487;-76
2023/09/17 09:49:57;;;;;;;7.00;6.40;;;;;;;31.71;35.55;100746.74;105959;1256;70692;-76
2023/09/17 09:52:25;;;;;;;7.30;6.70;;;;;;;31.98;35.30;100748.85;105901;1257;73085;-77
2023/09/17 09:54:52;;;;;;;6.60;6.10;;;;;;;32.15;34.91;100748.73;105837;1257;59737;-73
2023/09/17 09:57:20;;;;;;;7.90;6.90;;;;;;;32.25;34.66;100746.88;105680;1261;59981;-76
2023/09/17 09:59:48;;;;;;;7.50;6.50;;;;;;;32.40;34.74;100750.16;105497;1261;73017;-78
2023/09/17 10:02:15;;;;;;;7.70;7.10;;;;;;;32.70;34.66;100749.75;105561;1260;69214;-77
2023/09/17 10:04:44;;;;;;;7.40;6.80;;;;;;;32.89;34.63;100744.04;105404;1262;71900;-75
2023/09/17 10:07:13;;;;;;;7.80;7.10;;;;;;;32.99;34.14;100755.30;105760;1257;60075;-76
2023/09/17 10:09:41;;;;;;;8.20;7.40;;;;;;;32.86;33.95;100753.53;105577;1258;60077;-75
2023/09/17 10:12:09;;;;;;;7.00;6.40;;;;;;;32.72;34.10;100749.46;105653;1256;73476;-75
2023/09/17 10:14:37;;;;;;;7.10;6.40;;;;;;;32.80;34.04;100739.63;105701;1257;70007;-75
2023/09/17 10:17:06;;;;;;;7.40;6.80;;;;;;;33.11;33.79;100736.73;105822;1255;71787;-73
2023/09/17 10:19:36;;;;;;;7.10;6.50;;;;;;;33.60;33.61;100733.48;105971;1257;59984;-73
2023/09/17 10:22:06;;;;;;;7.40;6.80;;;;;;;33.93;32.24;100731.61;105653;1254;59641;-76
2023/09/17 10:24:36;;;;;;;6.70;6.20;;;;;;;34.00;32.08;100724.75;105630;1260;73835;-77
2023/09/17 10:27:06;;;;;;;6.90;6.30;;;;;;;34.26;32.10;100722.16;105719;1260;60219;-77
2023/09/17 10:29:35;;;;;;;6.90;6.40;;;;;;;34.71;31.75;100720.12;105730;1257;62444;-76
2023/09/17 10:32:03;;;;;;;6.80;6.20;;;;;;;35.15;31.33;100725.41;105606;1260;59767;-76
2023/09/17 10:34:35;;;;;;;7.40;6.80;;;;;;;35.34;30.84;100722.23;105808;1257;59621;-76
2023/09/17 10:37:03;;;;;;;8.10;7.50;;;;;;;35.36;30.80;100719.94;105568;1260;64074;-77
2023/09/17 10:39:32;;;;;;;6.40;5.90;;;;;;;35.51;30.40;100716.65;105589;1257;60127;-77
2023/09/17 10:42:02;;;;;;;8.20;7.40;;;;;;;35.64;30.58;100712.59;105636;1257;62498;-76
2023/09/17 10:44:30;;;;;;;7.90;7.20;;;;;;;35.83;30.33;100706.58;105768;1258;60225;-76
2023/09/17 10:47:01;;;;;;;7.20;6.50;;;;;;;35.90;30.32;100704.58;106729;1255;59685;-76
2023/09/17 10:49:31;;;;;;;7.90;7.10;;;;;;;35.95;30.34;100704.87;107619;1256;65071;-76
2023/09/17 10:51:59;;;;;;;7.80;7.10;;;;;;;35.92;30.43;100705.66;106970;1257;61563;-76
2023/09/17 10:54:26;;;;;;;8.60;7.80;;;;;;;36.01;30.57;100699.55;105700;1260;62424;-76
2023/09/17 10:56:55;;;;;;;7.70;7.00;;;;;;;36.24;30.69;100693.46;105662;1260;59740;-76
2023/09/17 10:59:23;;;;;;;7.60;7.00;;;;;;;36.50;30.36;100695.86;105818;1259;59606;-77
2023/09/17 11:01:50;;;;;;;9.70;7.70;;;;;;;36.78;29.98;100693.52;105535;1263;62860;-76
2023/09/17 11:04:19;;;;;;;8.20;7.50;;;;;;;36.87;29.62;100689.84;105649;1257;61293;-75
2023/09/17 11:06:47;;;;;;;8.60;7.80;;;;;;;37.06;29.64;100684.98;105754;1256;63742;-77
2023/09/17 11:09:14;;;;;;;8.50;7.80;;;;;;;37.56;29.32;100685.63;105695;1257;59662;-77
2023/09/17 11:11:42;;;;;;;8.30;7.60;;;;;;;37.95;29.04;100686.77;105556;1260;59579;-77
2023/09/17 11:14:10;;;;;;;8.40;7.70;;;;;;;38.07;28.65;100682.85;105464;1257;63130;-77